createdAt,value
2019-05-25T00:01:51.827Z,11.68
2019-05-25T00:04:20.095Z,12.55
2019-05-25T00:06:48.342Z,12.07
2019-05-25T00:09:16.601Z,12.10
2019-05-25T00:11:44.849Z,12.88
2019-05-25T00:14:13.129Z,13.00
2019-05-25T00:16:41.369Z,13.50
2019-05-25T00:19:09.628Z,13.65
2019-05-25T00:21:37.881Z,13.60
2019-05-25T00:24:12.259Z,13.93
2019-05-25T00:26:36.118Z,15.28
2019-05-25T00:29:04.382Z,14.43
2019-05-25T00:31:32.629Z,14.43
2019-05-25T00:34:00.894Z,15.45
2019-05-25T00:36:29.147Z,15.03
2019-05-25T00:38:57.419Z,16.87
2019-05-25T00:41:25.665Z,16.62
2019-05-25T00:43:53.977Z,15.28
2019-05-25T00:46:22.249Z,16.73
2019-05-25T00:48:50.519Z,16.10
2019-05-25T00:51:18.760Z,17.02
2019-05-25T00:53:47.021Z,16.97
2019-05-25T00:56:15.277Z,16.87
2019-05-25T00:58:43.533Z,17.30
2019-05-25T01:01:11.794Z,17.42
2019-05-25T01:03:40.056Z,17.37
2019-05-25T01:06:08.301Z,19.17
2019-05-25T01:08:36.581Z,20.25
2019-05-25T01:11:04.830Z,19.37
2019-05-25T01:13:33.091Z,18.65
2019-05-25T01:16:01.346Z,16.65
2019-05-25T01:18:29.593Z,17.82
2019-05-25T01:20:59.499Z,16.87
2019-05-25T01:23:27.759Z,15.40
2019-05-25T01:25:56.013Z,15.30
2019-05-25T01:28:24.269Z,14.45
2019-05-25T01:30:52.527Z,15.32
2019-05-25T01:33:20.865Z,15.40
2019-05-25T01:35:49.126Z,16.62
2019-05-25T01:38:17.376Z,16.93
2019-05-25T01:40:45.643Z,16.25
2019-05-25T01:43:13.893Z,15.32
2019-05-25T01:45:42.165Z,14.45
2019-05-25T01:48:10.414Z,14.85
2019-05-25T01:50:38.679Z,13.53
2019-05-25T01:53:06.930Z,14.63
2019-05-25T01:55:35.184Z,13.88
2019-05-25T01:58:03.432Z,12.50
2019-05-25T02:00:31.704Z,12.40
2019-05-25T02:02:59.948Z,15.13
2019-05-25T02:05:28.217Z,14.85
2019-05-25T02:07:56.463Z,15.38
2019-05-25T02:10:24.722Z,14.63
2019-05-25T02:12:52.968Z,12.18
2019-05-25T02:15:21.228Z,11.20
2019-05-25T02:17:49.489Z,9.78
2019-05-25T02:20:17.749Z,10.98
2019-05-25T02:22:45.996Z,9.80
2019-05-25T02:25:18.232Z,9.75
2019-05-25T02:27:44.289Z,10.35
2019-05-25T02:30:13.822Z,10.03
2019-05-25T02:32:42.154Z,10.80
2019-05-25T02:35:13.669Z,10.25
2019-05-25T02:37:41.917Z,10.28
2019-05-25T02:40:10.177Z,10.70
2019-05-25T02:42:38.433Z,10.30
2019-05-25T02:45:06.840Z,9.78
2019-05-25T02:47:35.095Z,10.48
2019-05-25T02:50:05.388Z,11.30
2019-05-25T02:52:33.641Z,11.30
2019-05-25T02:55:01.959Z,11.08
2019-05-25T02:57:30.197Z,9.83
2019-05-25T02:59:58.472Z,10.40
2019-05-25T03:02:26.725Z,10.00
2019-05-25T03:04:55.013Z,10.23
2019-05-25T03:07:23.305Z,9.60
2019-05-25T03:09:51.566Z,10.03
2019-05-25T03:12:19.814Z,10.00
2019-05-25T03:14:48.065Z,10.03
2019-05-25T03:17:16.329Z,10.15
2019-05-25T03:19:44.579Z,9.45
2019-05-25T03:22:12.849Z,10.60
2019-05-25T03:24:41.108Z,10.15
2019-05-25T03:27:09.366Z,11.53
2019-05-25T03:29:37.628Z,10.68
2019-05-25T03:32:05.883Z,10.45
2019-05-25T03:34:34.131Z,9.90
2019-05-25T03:37:02.390Z,9.58
2019-05-25T03:39:30.642Z,9.28
2019-05-25T03:41:58.901Z,8.38
2019-05-25T03:44:27.149Z,8.53
2019-05-25T03:46:55.405Z,7.50
2019-05-25T03:49:23.658Z,8.00
2019-05-25T03:51:51.916Z,8.98
2019-05-25T03:54:20.168Z,7.50
2019-05-25T03:56:48.421Z,6.90
2019-05-25T03:59:16.669Z,7.95
2019-05-25T04:01:44.938Z,6.72
2019-05-25T04:04:13.177Z,5.97
2019-05-25T04:06:41.445Z,6.67
2019-05-25T04:09:10.075Z,6.67
2019-05-25T04:11:38.320Z,6.60
2019-05-25T04:14:06.572Z,6.62
2019-05-25T04:16:34.824Z,6.08
2019-05-25T04:19:03.141Z,6.15
2019-05-25T04:21:31.397Z,6.00
2019-05-25T04:23:59.649Z,5.78
2019-05-25T04:26:27.912Z,5.78
2019-05-25T04:28:56.152Z,5.35
2019-05-25T04:31:24.400Z,4.80
2019-05-25T04:33:52.648Z,6.40
2019-05-25T04:36:20.914Z,6.33
2019-05-25T04:38:49.181Z,6.62
2019-05-25T04:41:17.497Z,6.65
2019-05-25T04:43:45.746Z,6.08
2019-05-25T04:46:14.011Z,5.85
2019-05-25T04:48:42.253Z,6.30
2019-05-25T04:51:10.513Z,6.00
2019-05-25T04:53:38.761Z,6.03
2019-05-25T04:56:07.028Z,5.40
2019-05-25T04:58:35.273Z,4.95
2019-05-25T05:01:03.535Z,5.92
2019-05-25T05:03:31.782Z,5.53
2019-05-25T05:06:00.037Z,5.67
2019-05-25T05:08:28.285Z,5.20
2019-05-25T05:10:56.527Z,5.42
2019-05-25T05:13:24.785Z,5.83
2019-05-25T05:15:53.033Z,6.05
2019-05-25T05:18:21.295Z,5.37
2019-05-25T05:20:49.533Z,5.90
2019-05-25T05:23:17.797Z,5.58
2019-05-25T05:25:46.032Z,4.90
2019-05-25T05:28:14.414Z,5.37
2019-05-25T05:30:42.661Z,4.97
2019-05-25T05:33:11.105Z,5.65
2019-05-25T05:35:39.409Z,5.10
2019-05-25T05:38:07.709Z,5.08
2019-05-25T05:40:36.556Z,5.12
2019-05-25T05:43:08.226Z,5.20
2019-05-25T05:45:36.469Z,5.25
2019-05-25T05:48:04.728Z,4.87
2019-05-25T05:50:32.982Z,5.22
2019-05-25T05:53:02.974Z,4.10
2019-05-25T05:55:32.328Z,4.70
2019-05-25T05:58:03.466Z,4.28
2019-05-25T06:00:31.719Z,5.30
2019-05-25T06:02:59.971Z,5.53
2019-05-25T06:05:28.232Z,5.35
2019-05-25T06:07:56.549Z,4.97
2019-05-25T06:10:24.801Z,5.60
2019-05-25T06:12:53.058Z,6.33
2019-05-25T06:15:21.301Z,7.22
2019-05-25T06:17:49.561Z,6.78
2019-05-25T06:20:17.805Z,6.67
2019-05-25T06:22:46.066Z,6.90
2019-05-25T06:25:14.327Z,6.40
2019-05-25T06:27:42.648Z,6.50
2019-05-25T06:30:10.893Z,7.12
2019-05-25T06:32:39.235Z,6.85
2019-05-25T06:35:07.520Z,6.90
2019-05-25T06:37:35.777Z,7.45
2019-05-25T06:40:05.462Z,7.53
2019-05-25T06:42:33.726Z,6.45
2019-05-25T06:45:01.975Z,7.17
2019-05-25T06:47:30.234Z,7.12
2019-05-25T06:49:58.481Z,6.85
2019-05-25T06:52:26.742Z,7.60
2019-05-25T06:54:54.989Z,8.05
2019-05-25T06:57:23.237Z,7.92
2019-05-25T06:59:51.503Z,7.58
2019-05-25T07:02:22.769Z,7.45
2019-05-25T07:04:51.525Z,6.53
2019-05-25T07:07:19.798Z,7.05
2019-05-25T07:09:48.069Z,7.03
2019-05-25T07:12:16.314Z,5.87
2019-05-25T07:14:44.573Z,6.47
2019-05-25T07:17:12.824Z,6.03
2019-05-25T07:19:41.086Z,6.30
2019-05-25T07:22:09.329Z,6.05
2019-05-25T07:24:37.585Z,6.55
2019-05-25T07:27:05.841Z,5.90
2019-05-25T07:29:34.108Z,5.42
2019-05-25T07:32:02.349Z,5.37
2019-05-25T07:34:30.610Z,5.85
2019-05-25T07:36:58.882Z,4.90
2019-05-25T07:39:27.150Z,4.85
2019-05-25T07:41:55.399Z,5.08
2019-05-25T07:44:23.656Z,4.30
2019-05-25T07:46:51.901Z,4.75
2019-05-25T07:49:20.162Z,5.10
2019-05-25T07:51:48.444Z,5.10
2019-05-25T07:54:16.756Z,5.10
2019-05-25T07:56:45.007Z,5.15
2019-05-25T07:59:13.261Z,5.15
2019-05-25T08:01:41.509Z,4.35
2019-05-25T08:04:09.761Z,4.92
2019-05-25T08:06:38.009Z,4.53
2019-05-25T08:09:07.405Z,5.15
2019-05-25T08:11:35.654Z,4.65
2019-05-25T08:14:03.909Z,5.10
2019-05-25T08:16:32.171Z,5.80
2019-05-25T08:19:00.426Z,5.58
2019-05-25T08:21:28.674Z,5.42
2019-05-25T08:23:56.972Z,5.35
2019-05-25T08:26:25.270Z,5.28
2019-05-25T08:28:53.542Z,5.92
2019-05-25T08:31:21.794Z,5.25
2019-05-25T08:33:50.055Z,5.05
2019-05-25T08:36:18.305Z,5.22
2019-05-25T08:38:46.569Z,5.22
2019-05-25T08:41:14.815Z,6.28
2019-05-25T08:43:43.069Z,6.05
2019-05-25T08:46:11.394Z,6.58
2019-05-25T08:48:39.640Z,6.20
2019-05-25T08:51:07.899Z,6.47
2019-05-25T08:53:41.280Z,5.90
2019-05-25T08:56:06.164Z,6.80
2019-05-25T08:58:47.573Z,6.20
2019-05-25T09:01:04.448Z,6.97
2019-05-25T09:03:32.697Z,7.55
2019-05-25T09:06:00.959Z,6.50
2019-05-25T09:08:29.208Z,6.55
2019-05-25T09:10:57.469Z,6.78
2019-05-25T09:13:25.713Z,6.95
2019-05-25T09:15:53.975Z,6.50
2019-05-25T09:18:22.219Z,7.30
2019-05-25T09:20:50.479Z,6.92
2019-05-25T09:23:18.733Z,7.12
2019-05-25T09:25:47.010Z,7.28
2019-05-25T09:28:15.262Z,6.67
2019-05-25T09:30:43.522Z,6.67
2019-05-25T09:33:11.802Z,7.08
2019-05-25T09:35:40.117Z,6.87
2019-05-25T09:38:08.365Z,7.22
2019-05-25T09:40:36.633Z,6.78
2019-05-25T09:43:04.898Z,6.85
2019-05-25T09:45:33.162Z,6.58
2019-05-25T09:48:01.404Z,6.53
2019-05-25T09:50:29.736Z,6.62
2019-05-25T09:52:57.990Z,6.40
2019-05-25T09:55:26.249Z,6.12
2019-05-25T09:57:54.494Z,5.85
2019-05-25T10:00:22.795Z,6.30
2019-05-25T10:02:51.437Z,6.37
2019-05-25T10:05:20.149Z,5.90
2019-05-25T10:07:48.446Z,5.47
2019-05-25T10:10:16.703Z,5.80
2019-05-25T10:12:44.940Z,5.83
2019-05-25T10:15:13.213Z,5.25
2019-05-25T10:17:41.465Z,4.78
2019-05-25T10:20:10.486Z,5.03
2019-05-25T10:22:38.807Z,5.20
2019-05-25T10:25:09.712Z,4.40
2019-05-25T10:27:37.943Z,4.30
2019-05-25T10:30:07.077Z,4.75
2019-05-25T10:32:35.317Z,4.10
2019-05-25T10:35:06.369Z,4.50
2019-05-25T10:37:34.621Z,4.55
2019-05-25T10:40:04.216Z,4.30
2019-05-25T10:42:32.457Z,4.42
2019-05-25T10:45:00.702Z,5.33
2019-05-25T10:47:28.957Z,4.37
2019-05-25T10:49:57.204Z,3.65
2019-05-25T10:52:25.456Z,4.22
2019-05-25T10:54:53.702Z,4.00
2019-05-25T10:57:21.969Z,4.30
2019-05-25T10:59:53.303Z,3.75
2019-05-25T11:02:20.193Z,3.95
2019-05-25T11:04:48.488Z,3.70
2019-05-25T11:07:16.786Z,3.50
2019-05-25T11:09:45.022Z,3.80
2019-05-25T11:12:13.279Z,5.00
2019-05-25T11:14:41.525Z,4.50
2019-05-25T11:17:09.789Z,4.20
2019-05-25T11:19:38.033Z,4.42
2019-05-25T11:22:06.290Z,4.00
2019-05-25T11:24:34.534Z,4.20
2019-05-25T11:27:02.861Z,4.45
2019-05-25T11:29:31.157Z,3.98
2019-05-25T11:32:03.977Z,3.52
2019-05-25T11:34:29.428Z,4.10
2019-05-25T11:36:57.689Z,4.20
2019-05-25T11:39:25.942Z,4.03
2019-05-25T11:41:54.196Z,3.98
2019-05-25T11:44:22.453Z,3.90
2019-05-25T11:46:50.708Z,4.15
2019-05-25T11:49:22.355Z,4.45
2019-05-25T11:51:48.937Z,5.15
2019-05-25T11:54:17.261Z,5.25
2019-05-25T11:56:45.516Z,4.70
2019-05-25T11:59:13.765Z,5.00
2019-05-25T12:01:42.031Z,4.90
2019-05-25T12:04:10.276Z,4.65
2019-05-25T12:06:38.546Z,4.65
2019-05-25T12:09:08.029Z,5.40
2019-05-25T12:11:36.358Z,5.22
2019-05-25T12:14:04.607Z,4.50
2019-05-25T12:16:32.865Z,4.17
2019-05-25T12:19:01.113Z,4.90
2019-05-25T12:21:29.369Z,4.58
2019-05-25T12:23:57.616Z,4.30
2019-05-25T12:26:25.873Z,4.10
2019-05-25T12:28:54.117Z,4.83
2019-05-25T12:31:22.953Z,4.15
2019-05-25T12:33:51.207Z,4.47
2019-05-25T12:36:19.467Z,4.70
2019-05-25T12:38:47.720Z,5.12
2019-05-25T12:41:15.957Z,4.10
2019-05-25T12:43:44.214Z,4.85
2019-05-25T12:46:12.465Z,4.12
2019-05-25T12:48:40.731Z,5.62
2019-05-25T12:51:08.973Z,5.53
2019-05-25T12:53:37.233Z,4.75
2019-05-25T12:56:05.494Z,5.08
2019-05-25T12:58:33.741Z,4.62
2019-05-25T13:01:01.985Z,5.03
2019-05-25T13:03:30.252Z,5.25
2019-05-25T13:05:58.497Z,4.60
2019-05-25T13:08:26.777Z,4.42
2019-05-25T13:10:55.031Z,4.05
2019-05-25T13:13:23.279Z,5.00
2019-05-25T13:15:51.598Z,5.08
2019-05-25T13:18:19.865Z,4.58
2019-05-25T13:20:48.153Z,4.72
2019-05-25T13:23:16.421Z,3.47
2019-05-25T13:25:44.669Z,3.37
2019-05-25T13:28:12.925Z,3.47
2019-05-25T13:30:41.174Z,3.90
2019-05-25T13:33:09.429Z,4.65
2019-05-25T13:35:37.679Z,4.37
2019-05-25T13:38:05.937Z,4.55
2019-05-25T13:40:34.194Z,4.95
2019-05-25T13:43:02.488Z,5.45
2019-05-25T13:45:30.773Z,6.58
2019-05-25T13:47:59.025Z,4.50
2019-05-25T13:50:27.267Z,4.30
2019-05-25T13:52:55.533Z,6.45
2019-05-25T13:55:23.773Z,3.35
2019-05-25T13:57:52.043Z,4.15
2019-05-25T14:00:20.380Z,4.05
2019-05-25T14:02:48.696Z,4.00
2019-05-25T14:05:16.950Z,5.97
2019-05-25T14:07:45.205Z,4.20
2019-05-25T14:10:13.461Z,4.10
2019-05-25T14:12:41.713Z,4.92
2019-05-25T14:15:10.412Z,3.80
2019-05-25T14:17:38.702Z,3.87
2019-05-25T14:20:06.948Z,3.58
2019-05-25T14:22:35.211Z,4.20
2019-05-25T14:25:05.201Z,3.87
2019-05-25T14:27:33.452Z,3.85
2019-05-25T14:30:01.705Z,4.30
2019-05-25T14:32:29.960Z,4.80
2019-05-25T14:34:58.221Z,4.75
2019-05-25T14:37:26.475Z,4.55
2019-05-25T14:39:54.721Z,4.35
2019-05-25T14:42:22.981Z,4.55
2019-05-25T14:44:51.245Z,4.40
2019-05-25T14:47:19.501Z,4.22
2019-05-25T14:49:47.790Z,4.05
2019-05-25T14:52:16.032Z,4.30
2019-05-25T14:54:44.293Z,4.58
2019-05-25T14:57:12.540Z,4.95
2019-05-25T14:59:40.886Z,4.37
2019-05-25T15:02:09.126Z,5.53
2019-05-25T15:04:37.401Z,4.67
2019-05-25T15:07:05.730Z,4.50
2019-05-25T15:09:34.038Z,4.70
2019-05-25T15:12:02.290Z,3.90
2019-05-25T15:14:30.541Z,4.10
2019-05-25T15:16:58.793Z,4.45
2019-05-25T15:19:27.051Z,4.45
2019-05-25T15:21:55.413Z,4.28
2019-05-25T15:24:23.986Z,4.92
2019-05-25T15:26:52.238Z,3.87
2019-05-25T15:29:20.485Z,4.55
2019-05-25T15:31:48.748Z,4.20
2019-05-25T15:34:17.001Z,5.17
2019-05-25T15:36:45.257Z,4.55
2019-05-25T15:39:13.525Z,4.37
2019-05-25T15:41:41.773Z,4.35
2019-05-25T15:44:10.037Z,5.10
2019-05-25T15:46:38.343Z,4.53
2019-05-25T15:49:06.640Z,4.33
2019-05-25T15:51:34.892Z,4.42
2019-05-25T15:54:03.147Z,4.47
2019-05-25T15:56:31.393Z,3.92
2019-05-25T15:58:59.653Z,4.33
2019-05-25T16:01:27.902Z,5.05
2019-05-25T16:03:56.166Z,4.10
2019-05-25T16:06:24.406Z,4.53
2019-05-25T16:08:52.671Z,4.37
2019-05-25T16:11:20.930Z,3.95
2019-05-25T16:13:49.238Z,4.33
2019-05-25T16:16:17.498Z,4.08
2019-05-25T16:18:45.744Z,3.58
2019-05-25T16:21:14.014Z,4.20
2019-05-25T16:23:42.266Z,3.98
2019-05-25T16:26:10.517Z,4.22
2019-05-25T16:28:38.760Z,4.42
2019-05-25T16:31:07.761Z,4.20
2019-05-25T16:33:36.006Z,3.70
2019-05-25T16:36:04.269Z,4.75
2019-05-25T16:38:32.517Z,6.42
2019-05-25T16:41:01.319Z,3.60
2019-05-25T16:43:29.577Z,3.60
2019-05-25T16:45:57.856Z,4.12
2019-05-25T16:48:26.094Z,3.65
2019-05-25T16:50:54.361Z,3.42
2019-05-25T16:53:22.601Z,3.92
2019-05-25T16:55:54.418Z,3.75
2019-05-25T16:58:20.829Z,3.60
2019-05-25T17:00:49.094Z,3.40
2019-05-25T17:03:27.625Z,3.72
2019-05-25T17:05:47.328Z,3.90
2019-05-25T17:08:15.571Z,4.10
2019-05-25T17:10:43.832Z,4.22
2019-05-25T17:13:12.090Z,4.12
2019-05-25T17:15:40.352Z,4.45
2019-05-25T17:18:08.624Z,3.75
2019-05-25T17:20:36.890Z,3.70
2019-05-25T17:23:05.145Z,4.12
2019-05-25T17:25:33.411Z,3.85
2019-05-25T17:28:01.653Z,3.60
2019-05-25T17:30:44.232Z,3.95
2019-05-25T17:33:12.563Z,3.58
2019-05-25T17:35:41.300Z,3.67
2019-05-25T17:38:09.553Z,3.77
2019-05-25T17:40:37.890Z,3.75
2019-05-25T17:43:06.154Z,3.22
2019-05-25T17:45:34.481Z,3.65
2019-05-25T17:48:02.797Z,3.42
2019-05-25T17:50:31.061Z,3.25
2019-05-25T17:52:59.311Z,4.10
2019-05-25T17:55:27.567Z,4.03
2019-05-25T17:57:55.808Z,3.12
2019-05-25T18:00:35.449Z,3.65
2019-05-25T18:03:04.448Z,3.80
2019-05-25T18:05:32.732Z,4.22
2019-05-25T18:08:00.987Z,4.03
2019-05-25T18:10:29.241Z,3.40
2019-05-25T18:13:01.032Z,3.30
2019-05-25T18:15:29.322Z,3.15
2019-05-25T18:17:57.586Z,3.83
2019-05-25T18:20:25.847Z,3.72
2019-05-25T18:22:54.098Z,4.15
2019-05-25T18:25:22.349Z,4.00
2019-05-25T18:27:50.618Z,3.98
2019-05-25T18:30:18.929Z,4.10
2019-05-25T18:32:47.199Z,4.30
2019-05-25T18:35:15.449Z,3.95
2019-05-25T18:37:43.708Z,3.50
2019-05-25T18:40:11.952Z,4.33
2019-05-25T18:42:40.213Z,3.70
2019-05-25T18:45:08.530Z,3.83
2019-05-25T18:47:36.785Z,3.83
2019-05-25T18:50:09.505Z,3.90
2019-05-25T18:52:37.761Z,3.60
2019-05-25T18:55:09.797Z,3.77
2019-05-25T18:57:38.541Z,3.15
2019-05-25T19:00:07.327Z,4.92
2019-05-25T19:02:37.218Z,4.05
2019-05-25T19:05:06.503Z,4.15
2019-05-25T19:07:34.758Z,4.20
2019-05-25T19:10:05.200Z,4.40
2019-05-25T19:12:33.461Z,5.12
2019-05-25T19:15:01.716Z,5.55
2019-05-25T19:17:30.001Z,5.25
2019-05-25T19:19:58.249Z,4.55
2019-05-25T19:22:26.516Z,4.70
2019-05-25T19:24:54.749Z,5.17
2019-05-25T19:27:23.013Z,5.20
2019-05-25T19:29:51.257Z,5.45
2019-05-25T19:32:19.542Z,5.80
2019-05-25T19:34:58.857Z,5.35
2019-05-25T19:37:20.394Z,5.22
2019-05-25T19:39:48.642Z,5.47
2019-05-25T19:42:16.903Z,5.55
2019-05-25T19:44:45.150Z,5.15
2019-05-25T19:47:13.409Z,5.37
2019-05-25T19:49:42.228Z,5.97
2019-05-25T19:52:10.482Z,5.28
2019-05-25T19:54:38.725Z,5.60
2019-05-25T19:57:07.023Z,5.45
2019-05-25T19:59:35.324Z,5.55
2019-05-25T20:02:03.674Z,5.37
2019-05-25T20:04:31.918Z,5.53
2019-05-25T20:07:00.181Z,6.33
2019-05-25T20:09:28.437Z,6.20
2019-05-25T20:11:56.698Z,6.00
2019-05-25T20:14:24.957Z,6.08
2019-05-25T20:16:53.218Z,6.20
2019-05-25T20:19:21.473Z,5.85
2019-05-25T20:21:49.737Z,6.03
2019-05-25T20:24:17.983Z,5.70
2019-05-25T20:26:46.233Z,5.97
2019-05-25T20:29:14.500Z,6.22
2019-05-25T20:31:42.745Z,6.80
2019-05-25T20:34:11.013Z,5.97
2019-05-25T20:36:39.262Z,6.33
2019-05-25T20:39:07.887Z,6.35
2019-05-25T20:41:36.138Z,6.22
2019-05-25T20:44:04.456Z,6.62
2019-05-25T20:46:32.707Z,6.72
2019-05-25T20:49:00.972Z,6.55
2019-05-25T20:51:29.217Z,7.25
2019-05-25T20:53:57.481Z,6.55
2019-05-25T20:56:25.717Z,7.35
2019-05-25T20:58:53.972Z,7.05
2019-05-25T21:01:22.221Z,6.45
2019-05-25T21:03:50.481Z,7.72
2019-05-25T21:06:18.725Z,6.92
2019-05-25T21:08:46.985Z,8.08
2019-05-25T21:11:15.236Z,10.63
2019-05-25T21:13:43.577Z,10.63
2019-05-25T21:16:11.830Z,11.03
2019-05-25T21:18:40.101Z,10.28
2019-05-25T21:21:08.357Z,11.22
2019-05-25T21:23:36.633Z,10.30
2019-05-25T21:26:04.892Z,9.38
2019-05-25T21:28:34.877Z,12.60
2019-05-25T21:31:03.203Z,14.23
2019-05-25T21:33:31.488Z,14.98
2019-05-25T21:36:08.428Z,13.10
2019-05-25T21:38:29.724Z,14.07
2019-05-25T21:40:57.997Z,12.20
2019-05-25T21:43:26.277Z,11.95
2019-05-25T21:45:54.533Z,11.85
2019-05-25T21:48:22.817Z,15.40
2019-05-25T21:50:51.068Z,14.03
2019-05-25T21:53:19.341Z,13.00
2019-05-25T21:55:47.644Z,14.45
2019-05-25T21:58:15.898Z,12.37
2019-05-25T22:00:44.145Z,10.50
2019-05-25T22:03:12.408Z,10.35
2019-05-25T22:05:40.661Z,9.08
2019-05-25T22:08:08.917Z,9.75
2019-05-25T22:10:37.168Z,9.83
2019-05-25T22:13:05.433Z,9.15
2019-05-25T22:15:33.677Z,9.48
2019-05-25T22:18:01.979Z,9.80
2019-05-25T22:20:30.228Z,10.43
2019-05-25T22:22:58.481Z,10.95
2019-05-25T22:25:26.740Z,10.13
2019-05-25T22:27:54.995Z,10.93
2019-05-25T22:30:23.623Z,11.00
2019-05-25T22:32:52.342Z,12.25
2019-05-25T22:35:20.603Z,10.85
2019-05-25T22:37:48.857Z,10.38
2019-05-25T22:40:17.123Z,11.33
2019-05-25T22:42:45.365Z,11.45
2019-05-25T22:45:13.626Z,11.15
2019-05-25T22:47:41.873Z,11.28
2019-05-25T22:50:10.133Z,12.03
2019-05-25T22:52:38.377Z,12.68
2019-05-25T22:55:06.732Z,13.15
2019-05-25T22:57:34.977Z,11.80
2019-05-25T23:00:06.473Z,12.18
2019-05-25T23:02:34.778Z,12.05
2019-05-25T23:05:06.973Z,15.98
2019-05-25T23:07:33.369Z,15.85
2019-05-25T23:10:01.638Z,14.38
2019-05-25T23:12:29.882Z,15.85
2019-05-25T23:14:58.144Z,14.03
2019-05-25T23:17:26.386Z,13.20
2019-05-25T23:19:54.643Z,11.95
2019-05-25T23:22:22.901Z,12.35
2019-05-25T23:24:51.267Z,12.60
2019-05-25T23:27:19.609Z,12.82
2019-05-25T23:29:47.879Z,12.35
2019-05-25T23:32:16.117Z,12.73
2019-05-25T23:34:44.375Z,13.05
2019-05-25T23:37:14.965Z,12.45
2019-05-25T23:39:42.601Z,12.45
2019-05-25T23:42:10.854Z,12.55
2019-05-25T23:44:39.109Z,13.00
2019-05-25T23:47:07.352Z,14.93
2019-05-25T23:49:35.613Z,17.15
2019-05-25T23:52:03.854Z,16.50
2019-05-25T23:54:32.110Z,14.18
2019-05-25T23:57:00.371Z,12.98
2019-05-25T23:59:29.666Z,13.32
